Terminal Aerodrome Forecast
Issued by NWS

Home | Current Version | Previous Version | Text Only | Print | Product List | Glossary On
Versions: 1 2 3 4 5 6 7 8 9 10 11 12
599
FTPA31 PHFO 141137
TAFHTO
TAF
PHTO 141137Z 1412/1512 24006KT P6SM VCSH SCT025 BKN045
     FM142000 10010KT P6SM SCT030 SCT050
     FM150600 24006KT P6SM VCSH SCT025 BKN045=

USA.gov is the U.S. government's official web portal to all federal, state and local government web resources and services.